Time;durP1;ratioP1;P1;durP2;ratioP2;P2;SDS_P1;SDS_P2;PMS_P1;PMS_P2;Temp;Humidity;BMP_temperature;BMP_pressure;BME280_temperature;BME280_humidity;BME280_pressure;Samples;Min_cycle;Max_cycle;Signal;HPM_P1;HPM_P2
2022/01/16 00:02:07;;;;;;;;;;;0.80;99.90;;;;;;5046124;28;20455;-76
2022/01/16 00:04:34;;;;;;;;;;;0.80;99.90;;;;;;5051844;28;19951;-76
2022/01/16 00:07:03;;;;;;;;;;;0.80;99.90;;;;;;5063878;28;20418;-76
2022/01/16 00:09:31;;;;;;;;;;;0.80;99.90;;;;;;5040247;28;20356;-76
2022/01/16 00:12:00;;;;;;;;;;;0.80;99.90;;;;;;5062529;28;20525;-75
2022/01/16 00:14:28;;;;;;;;;;;0.80;99.90;;;;;;5055128;28;20271;-76
2022/01/16 00:16:55;;;;;;;;;;;0.80;99.90;;;;;;5045818;28;19959;-76
2022/01/16 00:19:21;;;;;;;;;;;0.80;99.90;;;;;;5173518;22;19924;-76
2022/01/16 00:21:50;;;;;;;;;;;0.80;99.90;;;;;;5091853;28;19928;-76
2022/01/16 00:24:17;;;;;;;;;;;0.70;99.90;;;;;;5116004;27;19932;-76
2022/01/16 00:26:44;;;;;;;;;;;0.80;99.90;;;;;;5091804;28;19924;-76
2022/01/16 00:29:12;;;;;;;;;;;0.80;99.90;;;;;;5087901;28;19978;-76
2022/01/16 00:31:40;;;;;;;;;;;0.80;99.90;;;;;;5098162;28;19943;-76
2022/01/16 00:34:08;;;;;;;;;;;0.80;99.90;;;;;;5089248;28;20002;-76
2022/01/16 00:36:35;;;;;;;;;;;0.70;99.90;;;;;;5108112;28;19929;-76
2022/01/16 00:39:04;;;;;;;;;;;0.70;99.90;;;;;;5104755;28;19939;-76
2022/01/16 00:41:31;;;;;;;;;;;0.80;99.90;;;;;;5094977;28;19928;-76
2022/01/16 00:43:58;;;;;;;;;;;0.80;99.90;;;;;;5095171;28;19931;-76
2022/01/16 00:46:25;;;;;;;;;;;0.80;99.90;;;;;;5091090;28;20393;-76
2022/01/16 00:48:51;;;;;;;;;;;0.80;99.90;;;;;;5090560;28;19927;-76
2022/01/16 00:51:18;;;;;;;;;;;0.70;99.90;;;;;;5090598;28;19924;-76
2022/01/16 00:53:45;;;;;;;;;;;0.80;99.90;;;;;;5095311;28;19928;-76
2022/01/16 00:56:14;;;;;;;;;;;0.80;99.90;;;;;;5078928;28;19924;-76
2022/01/16 00:58:41;;;;;;;;;;;0.80;99.90;;;;;;5103303;28;20672;-76
2022/01/16 01:01:08;;;;;;;;;;;0.70;99.90;;;;;;5096949;28;20057;-76
2022/01/16 01:03:35;;;;;;;;;;;0.70;99.90;;;;;;5091969;28;20386;-76
2022/01/16 01:06:02;;;;;;;;;;;0.70;99.90;;;;;;5111807;28;19931;-76
2022/01/16 01:08:30;;;;;;;;;;;0.70;99.90;;;;;;5088866;28;19928;-76
2022/01/16 01:10:58;;;;;;;;;;;0.70;99.90;;;;;;5107910;28;20386;-76
2022/01/16 01:13:33;;;;;;;;;;;0.70;99.90;;;;;;5103503;28;19931;-76
2022/01/16 01:16:03;;;;;;;;;;;0.70;99.90;;;;;;5095206;28;19951;-76
2022/01/16 01:18:31;;;;;;;;;;;0.70;99.90;;;;;;5106129;27;19931;-76
2022/01/16 01:20:59;;;;;;;;;;;0.70;99.90;;;;;;5091813;28;19924;-76
2022/01/16 01:23:26;;;;;;;;;;;0.70;99.90;;;;;;5088670;28;19924;-76
2022/01/16 01:25:53;;;;;;;;;;;0.70;99.90;;;;;;5098573;28;19924;-76
2022/01/16 01:28:20;;;;;;;;;;;0.70;99.90;;;;;;5086748;28;19985;-76
2022/01/16 01:30:48;;;;;;;;;;;0.70;99.90;;;;;;5095035;28;19931;-76
2022/01/16 01:33:19;;;;;;;;;;;0.70;99.90;;;;;;5104902;27;20417;-76
2022/01/16 01:35:46;;;;;;;;;;;0.70;99.90;;;;;;5090546;28;20019;-76
2022/01/16 01:38:17;;;;;;;;;;;0.70;99.90;;;;;;5110442;27;20290;-76
2022/01/16 01:40:44;;;;;;;;;;;0.70;99.90;;;;;;5097368;28;21394;-76
2022/01/16 01:51:27;;;;;;;;;;;0.70;99.90;;;;;;5108325;27;19927;-76
2022/01/16 01:53:56;;;;;;;;;;;0.70;99.90;;;;;;5087674;28;19986;-76
2022/01/16 01:56:23;;;;;;;;;;;0.70;99.90;;;;;;5099091;27;19924;-76
2022/01/16 01:58:51;;;;;;;;;;;0.70;99.90;;;;;;5095038;28;19927;-76
2022/01/16 02:01:19;;;;;;;;;;;0.70;99.90;;;;;;5096262;28;19930;-76
2022/01/16 02:03:48;;;;;;;;;;;0.70;99.90;;;;;;5080882;28;20000;-76
2022/01/16 02:06:16;;;;;;;;;;;0.70;99.90;;;;;;5090331;28;19979;-76
2022/01/16 02:08:43;;;;;;;;;;;0.70;99.90;;;;;;5088730;28;19932;-76
2022/01/16 02:11:11;;;;;;;;;;;0.70;99.90;;;;;;5098503;28;19969;-76
2022/01/16 02:13:47;;;;;;;;;;;0.70;99.90;;;;;;5097950;28;19931;-76
2022/01/16 02:33:21;;;;;;;;;;;0.70;99.90;;;;;;5104611;27;19920;-76
2022/01/16 02:35:36;;;;;;;;;;;0.70;99.90;;;;;;5110653;27;19928;-76
2022/01/16 02:38:04;;;;;;;;;;;0.60;99.90;;;;;;5095042;28;19924;-76
2022/01/16 02:40:35;;;;;;;;;;;0.60;99.90;;;;;;5104543;27;19928;-76
2022/01/16 02:43:03;;;;;;;;;;;0.60;99.90;;;;;;5091063;28;20048;-76
2022/01/16 02:45:31;;;;;;;;;;;0.70;99.90;;;;;;5094887;28;19924;-76
2022/01/16 02:47:59;;;;;;;;;;;0.60;99.90;;;;;;5101299;28;19924;-75
2022/01/16 02:50:27;;;;;;;;;;;0.60;99.90;;;;;;5090225;28;19969;-76
2022/01/16 02:52:54;;;;;;;;;;;0.60;99.90;;;;;;5088911;28;19924;-76
2022/01/16 02:55:21;;;;;;;;;;;0.60;99.90;;;;;;5098689;27;20294;-76
2022/01/16 02:57:51;;;;;;;;;;;0.60;99.90;;;;;;5108455;27;19925;-76
2022/01/16 03:00:18;;;;;;;;;;;0.60;99.90;;;;;;5108671;27;19936;-76
2022/01/16 03:02:45;;;;;;;;;;;0.60;99.90;;;;;;5092238;28;19928;-76
2022/01/16 03:05:13;;;;;;;;;;;0.60;99.90;;;;;;5091898;28;19924;-76
2022/01/16 03:07:40;;;;;;;;;;;0.60;99.90;;;;;;5097805;28;19928;-76
2022/01/16 03:10:30;;;;;;;;;;;0.60;99.90;;;;;;5097853;28;19977;-76
2022/01/16 03:12:59;;;;;;;;;;;0.60;99.90;;;;;;5111222;27;19979;-76
2022/01/16 03:15:26;;;;;;;;;;;0.60;99.90;;;;;;5088808;28;20405;-76
2022/01/16 03:23:20;;;;;;;;;;;0.60;99.90;;;;;;5094786;28;20404;-75
2022/01/16 03:25:47;;;;;;;;;;;0.60;99.90;;;;;;5100553;27;19924;-76
2022/01/16 03:28:15;;;;;;;;;;;0.60;99.90;;;;;;5085745;28;20345;-75
2022/01/16 03:30:43;;;;;;;;;;;0.60;99.90;;;;;;5088240;28;19937;-76
2022/01/16 03:33:10;;;;;;;;;;;0.60;99.90;;;;;;5087505;28;20382;-76
2022/01/16 03:35:37;;;;;;;;;;;0.60;99.90;;;;;;5091628;28;19928;-76
2022/01/16 03:38:04;;;;;;;;;;;0.60;99.90;;;;;;5090453;28;19924;-76
2022/01/16 03:40:30;;;;;;;;;;;0.60;99.90;;;;;;5099751;28;19925;-76
2022/01/16 03:43:04;;;;;;;;;;;0.60;99.90;;;;;;5090705;28;19928;-76
2022/01/16 03:45:32;;;;;;;;;;;0.60;99.90;;;;;;5086854;28;20022;-76
2022/01/16 03:48:00;;;;;;;;;;;0.60;99.90;;;;;;5094253;28;19979;-76
2022/01/16 03:50:27;;;;;;;;;;;0.60;99.90;;;;;;5102900;27;21388;-76
2022/01/16 03:52:54;;;;;;;;;;;0.60;99.90;;;;;;5169693;22;19924;-73
2022/01/16 03:55:21;;;;;;;;;;;0.60;99.90;;;;;;5102149;28;19924;-73
2022/01/16 03:57:48;;;;;;;;;;;0.60;99.90;;;;;;5097395;28;19935;-73
2022/01/16 04:00:15;;;;;;;;;;;0.60;99.90;;;;;;5103955;28;19954;-73
2022/01/16 04:02:43;;;;;;;;;;;0.60;99.90;;;;;;5097364;28;20019;-73
2022/01/16 04:05:10;;;;;;;;;;;0.60;99.90;;;;;;5090347;28;19969;-73
2022/01/16 04:07:37;;;;;;;;;;;0.50;99.90;;;;;;5094450;28;19928;-73
2022/01/16 04:10:05;;;;;;;;;;;0.50;99.90;;;;;;5085196;28;19969;-73
2022/01/16 04:12:34;;;;;;;;;;;0.60;99.90;;;;;;5096587;28;19999;-73
2022/01/16 04:17:47;;;;;;;;;;;0.60;99.90;;;;;;5081328;28;19924;-73
2022/01/16 04:20:16;;;;;;;;;;;0.50;99.90;;;;;;5078522;28;19977;-73
2022/01/16 04:22:43;;;;;;;;;;;0.50;99.90;;;;;;5105912;28;20015;-73
2022/01/16 04:25:10;;;;;;;;;;;0.50;99.90;;;;;;5093864;28;19924;-73
2022/01/16 04:27:37;;;;;;;;;;;0.50;99.90;;;;;;5082397;28;19928;-73
2022/01/16 04:30:04;;;;;;;;;;;0.60;99.90;;;;;;5085855;28;19924;-73
2022/01/16 04:32:31;;;;;;;;;;;0.50;99.90;;;;;;5087936;28;19936;-73
2022/01/16 04:34:59;;;;;;;;;;;0.50;99.90;;;;;;5089553;28;19932;-73
2022/01/16 04:37:26;;;;;;;;;;;0.50;99.90;;;;;;5092380;28;19924;-73
2022/01/16 04:39:59;;;;;;;;;;;0.50;99.90;;;;;;5096953;28;19932;-73
2022/01/16 04:45:10;;;;;;;;;;;0.50;99.90;;;;;;5088920;28;20015;-73
2022/01/16 04:47:37;;;;;;;;;;;0.50;99.90;;;;;;5096023;28;20455;-73
2022/01/16 04:50:06;;;;;;;;;;;0.50;99.90;;;;;;5093654;28;19924;-73
2022/01/16 04:52:33;;;;;;;;;;;0.50;99.90;;;;;;5092505;28;20022;-73
2022/01/16 04:55:00;;;;;;;;;;;0.50;99.90;;;;;;5100086;28;19925;-73
2022/01/16 04:57:27;;;;;;;;;;;0.50;99.90;;;;;;5097462;28;19924;-73
2022/01/16 04:59:54;;;;;;;;;;;0.50;99.90;;;;;;5096626;28;19924;-73
2022/01/16 05:02:21;;;;;;;;;;;0.50;99.90;;;;;;5104900;28;19924;-73
2022/01/16 05:04:47;;;;;;;;;;;0.50;99.90;;;;;;5099104;28;19935;-73
2022/01/16 05:07:16;;;;;;;;;;;0.50;99.90;;;;;;5094078;28;19967;-73
2022/01/16 05:09:43;;;;;;;;;;;0.50;99.90;;;;;;5096813;28;19924;-74
2022/01/16 05:12:22;;;;;;;;;;;0.50;99.90;;;;;;5082284;28;19982;-73
2022/01/16 05:17:34;;;;;;;;;;;0.50;99.90;;;;;;5095501;28;19919;-73
2022/01/16 05:20:00;;;;;;;;;;;0.50;99.90;;;;;;5099983;28;19947;-73
2022/01/16 05:22:29;;;;;;;;;;;0.50;99.90;;;;;;5100160;28;20154;-73
2022/01/16 05:24:56;;;;;;;;;;;0.50;99.90;;;;;;5095671;28;19924;-73
2022/01/16 05:27:22;;;;;;;;;;;0.50;99.90;;;;;;5094202;28;19924;-73
2022/01/16 05:29:49;;;;;;;;;;;0.50;99.90;;;;;;5095157;28;20340;-73
2022/01/16 05:32:16;;;;;;;;;;;0.50;99.90;;;;;;5101874;28;20487;-73
2022/01/16 05:34:43;;;;;;;;;;;0.50;99.90;;;;;;5090805;28;19924;-73
2022/01/16 05:37:10;;;;;;;;;;;0.50;99.90;;;;;;5096015;28;19935;-73
2022/01/16 05:39:39;;;;;;;;;;;0.50;99.90;;;;;;5097907;28;19928;-73
2022/01/16 05:42:06;;;;;;;;;;;0.50;99.90;;;;;;5090543;28;19924;-73
2022/01/16 05:44:33;;;;;;;;;;;0.50;99.90;;;;;;5091527;28;19924;-73
2022/01/16 05:47:02;;;;;;;;;;;0.50;99.90;;;;;;5096337;28;20465;-73
2022/01/16 05:49:29;;;;;;;;;;;0.50;99.90;;;;;;5095689;28;20412;-73
2022/01/16 05:51:56;;;;;;;;;;;0.50;99.90;;;;;;5087935;28;19924;-74
2022/01/16 05:54:23;;;;;;;;;;;0.50;99.90;;;;;;5088650;28;19924;-73
2022/01/16 05:56:51;;;;;;;;;;;0.50;99.90;;;;;;5089740;28;19924;-73
2022/01/16 05:59:19;;;;;;;;;;;0.50;99.90;;;;;;5099568;28;19935;-73
2022/01/16 06:01:45;;;;;;;;;;;0.50;99.90;;;;;;5097809;28;20010;-73
2022/01/16 06:04:12;;;;;;;;;;;0.50;99.90;;;;;;5098181;28;19934;-73
2022/01/16 06:06:39;;;;;;;;;;;0.40;99.90;;;;;;5101789;28;19924;-73
2022/01/16 06:09:06;;;;;;;;;;;0.40;99.90;;;;;;5085228;28;20401;-73
2022/01/16 06:11:33;;;;;;;;;;;0.40;99.90;;;;;;5090933;28;20462;-73
2022/01/16 06:14:01;;;;;;;;;;;0.40;99.90;;;;;;5094722;28;19924;-73
2022/01/16 06:16:28;;;;;;;;;;;0.40;99.90;;;;;;5086543;28;19981;-73
2022/01/16 06:18:55;;;;;;;;;;;0.40;99.90;;;;;;5083829;28;20390;-73
2022/01/16 06:21:22;;;;;;;;;;;0.40;99.90;;;;;;5092822;27;19954;-73
2022/01/16 06:23:49;;;;;;;;;;;0.40;99.90;;;;;;5111122;27;19928;-73
2022/01/16 06:26:16;;;;;;;;;;;0.40;99.90;;;;;;5096208;28;19935;-73
2022/01/16 06:28:42;;;;;;;;;;;0.40;99.90;;;;;;5091867;28;19931;-73
2022/01/16 06:31:11;;;;;;;;;;;0.40;99.90;;;;;;5103250;28;20394;-73
2022/01/16 06:33:38;;;;;;;;;;;0.40;99.90;;;;;;5079646;28;19939;-73
2022/01/16 06:36:05;;;;;;;;;;;0.40;99.90;;;;;;5094829;28;19931;-74
2022/01/16 06:38:32;;;;;;;;;;;0.40;99.90;;;;;;5090954;28;19931;-73
2022/01/16 06:40:59;;;;;;;;;;;0.40;99.90;;;;;;5083151;28;20375;-73
2022/01/16 06:43:26;;;;;;;;;;;0.40;99.90;;;;;;5092478;28;19924;-73
2022/01/16 06:45:54;;;;;;;;;;;0.40;99.90;;;;;;5095939;28;19935;-73
2022/01/16 06:48:22;;;;;;;;;;;0.40;99.90;;;;;;5090931;28;19930;-73
2022/01/16 06:50:49;;;;;;;;;;;0.40;99.90;;;;;;5085353;28;19971;-73
2022/01/16 06:53:16;;;;;;;;;;;0.40;99.90;;;;;;5098242;28;19924;-73
2022/01/16 06:55:43;;;;;;;;;;;0.40;99.90;;;;;;5090709;28;19928;-73
2022/01/16 06:58:10;;;;;;;;;;;0.40;99.90;;;;;;5100336;28;19932;-73
2022/01/16 07:00:37;;;;;;;;;;;0.40;99.90;;;;;;5095361;28;19991;-75
2022/01/16 07:03:04;;;;;;;;;;;0.40;99.90;;;;;;5092622;28;20178;-74
2022/01/16 07:05:32;;;;;;;;;;;0.40;99.90;;;;;;5097813;28;19946;-74
2022/01/16 07:07:59;;;;;;;;;;;0.40;99.90;;;;;;5093620;28;20405;-73
2022/01/16 07:10:26;;;;;;;;;;;0.40;99.90;;;;;;5099597;28;19999;-73
2022/01/16 07:12:53;;;;;;;;;;;0.40;99.90;;;;;;5098156;28;19928;-73
2022/01/16 07:15:20;;;;;;;;;;;0.30;99.90;;;;;;5095925;28;20344;-73
2022/01/16 07:17:47;;;;;;;;;;;0.30;99.90;;;;;;5096106;28;20537;-73
2022/01/16 07:20:15;;;;;;;;;;;0.40;99.90;;;;;;5096943;28;19924;-73
2022/01/16 07:22:44;;;;;;;;;;;0.40;99.90;;;;;;5079799;28;19970;-73
2022/01/16 07:25:11;;;;;;;;;;;0.40;99.90;;;;;;5099146;28;19955;-73
2022/01/16 07:27:38;;;;;;;;;;;0.30;99.90;;;;;;5087922;28;19971;-73
2022/01/16 07:30:06;;;;;;;;;;;0.30;99.90;;;;;;5091350;28;19923;-73
2022/01/16 07:32:33;;;;;;;;;;;0.40;99.90;;;;;;5090575;28;20608;-73
2022/01/16 07:35:00;;;;;;;;;;;0.30;99.90;;;;;;5088367;28;19931;-73
2022/01/16 07:37:27;;;;;;;;;;;0.40;99.90;;;;;;5094009;28;19936;-73
2022/01/16 07:39:56;;;;;;;;;;;0.30;99.90;;;;;;5103028;28;19924;-73
2022/01/16 07:42:23;;;;;;;;;;;0.40;99.90;;;;;;5086392;28;19927;-75
2022/01/16 07:44:51;;;;;;;;;;;0.40;99.90;;;;;;5086760;28;19924;-75
2022/01/16 07:47:18;;;;;;;;;;;0.30;99.90;;;;;;5086594;28;20269;-75
2022/01/16 07:49:45;;;;;;;;;;;0.40;99.90;;;;;;5088438;28;19924;-75
2022/01/16 07:52:12;;;;;;;;;;;0.30;99.90;;;;;;5090686;28;19931;-73
2022/01/16 07:54:39;;;;;;;;;;;0.30;99.90;;;;;;5091430;28;20032;-73
2022/01/16 07:57:08;;;;;;;;;;;0.40;99.90;;;;;;5097234;28;19924;-73
2022/01/16 07:59:36;;;;;;;;;;;0.30;99.90;;;;;;5092294;28;19924;-73
2022/01/16 08:02:03;;;;;;;;;;;0.30;99.90;;;;;;5100435;28;19954;-73
2022/01/16 08:04:30;;;;;;;;;;;0.30;99.90;;;;;;5095766;28;19963;-73
2022/01/16 08:06:57;;;;;;;;;;;0.30;99.90;;;;;;5095692;28;19912;-73
2022/01/16 08:09:24;;;;;;;;;;;0.40;99.90;;;;;;5089050;28;19944;-74
2022/01/16 08:11:54;;;;;;;;;;;0.40;99.90;;;;;;5094680;28;19924;-73
2022/01/16 08:14:22;;;;;;;;;;;0.40;99.90;;;;;;5090612;28;19924;-75
2022/01/16 08:16:49;;;;;;;;;;;0.40;99.90;;;;;;5084961;28;19928;-75
2022/01/16 08:19:16;;;;;;;;;;;0.30;99.90;;;;;;5094595;28;19946;-73
2022/01/16 08:21:43;;;;;;;;;;;0.40;99.90;;;;;;5096982;28;19930;-73
2022/01/16 08:24:10;;;;;;;;;;;0.30;99.90;;;;;;5084709;28;19925;-75
2022/01/16 08:26:37;;;;;;;;;;;0.30;99.90;;;;;;5094324;28;19924;-75
2022/01/16 08:29:04;;;;;;;;;;;0.40;99.90;;;;;;5088125;28;19977;-73
2022/01/16 08:31:32;;;;;;;;;;;0.30;99.90;;;;;;5093329;28;19964;-74
2022/01/16 08:33:59;;;;;;;;;;;0.40;99.90;;;;;;5088332;28;19987;-73
2022/01/16 08:36:26;;;;;;;;;;;0.40;99.90;;;;;;5099418;28;19940;-74
2022/01/16 08:38:54;;;;;;;;;;;0.30;99.90;;;;;;5099475;28;19924;-74
2022/01/16 08:41:21;;;;;;;;;;;0.40;99.90;;;;;;5091193;28;20393;-73
2022/01/16 08:43:48;;;;;;;;;;;0.40;99.90;;;;;;5094992;28;20010;-73
2022/01/16 08:46:15;;;;;;;;;;;0.40;99.90;;;;;;5089245;28;20024;-74
2022/01/16 08:48:44;;;;;;;;;;;0.30;99.90;;;;;;5085028;28;19924;-73
2022/01/16 08:51:11;;;;;;;;;;;0.30;99.90;;;;;;5096492;28;20174;-74
2022/01/16 08:53:38;;;;;;;;;;;0.40;99.90;;;;;;5083674;28;19934;-73
2022/01/16 08:56:05;;;;;;;;;;;0.40;99.90;;;;;;5106252;28;20098;-73
2022/01/16 08:58:32;;;;;;;;;;;0.40;99.90;;;;;;5089800;28;20008;-73
2022/01/16 09:00:59;;;;;;;;;;;0.30;99.90;;;;;;5093136;28;19923;-73
2022/01/16 09:03:26;;;;;;;;;;;0.30;99.90;;;;;;5099082;28;19928;-74
2022/01/16 09:05:54;;;;;;;;;;;0.30;99.90;;;;;;5090388;28;19952;-73
2022/01/16 09:08:21;;;;;;;;;;;0.30;99.90;;;;;;5091455;28;20437;-74
2022/01/16 09:10:48;;;;;;;;;;;0.40;99.90;;;;;;5090170;28;20073;-73
2022/01/16 09:13:16;;;;;;;;;;;0.40;99.90;;;;;;5105631;28;19939;-73
2022/01/16 09:15:44;;;;;;;;;;;0.40;99.90;;;;;;5082027;28;20379;-73
2022/01/16 09:18:11;;;;;;;;;;;0.30;99.90;;;;;;5093099;28;19939;-74
2022/01/16 09:20:38;;;;;;;;;;;0.30;99.90;;;;;;5091135;28;19981;-73
2022/01/16 09:23:06;;;;;;;;;;;0.30;99.90;;;;;;5091136;28;19931;-73
2022/01/16 09:25:33;;;;;;;;;;;0.30;99.90;;;;;;5084005;28;19924;-73
2022/01/16 09:28:00;;;;;;;;;;;0.30;99.90;;;;;;5084207;28;19940;-73
2022/01/16 09:30:28;;;;;;;;;;;0.30;99.90;;;;;;5091474;28;20333;-73
2022/01/16 09:32:55;;;;;;;;;;;0.30;99.90;;;;;;5092321;28;20015;-73
2022/01/16 09:35:22;;;;;;;;;;;0.30;99.90;;;;;;5090450;28;19924;-73
2022/01/16 09:37:49;;;;;;;;;;;0.30;99.90;;;;;;5089683;28;19924;-73
2022/01/16 09:40:19;;;;;;;;;;;0.30;99.90;;;;;;5088981;28;19924;-73
2022/01/16 09:42:46;;;;;;;;;;;0.30;99.90;;;;;;5085136;28;19928;-73
2022/01/16 09:45:14;;;;;;;;;;;0.30;99.90;;;;;;5098520;28;19969;-73
2022/01/16 09:47:43;;;;;;;;;;;0.30;99.90;;;;;;5098560;28;19931;-73
2022/01/16 09:50:11;;;;;;;;;;;0.30;99.90;;;;;;5089560;28;19921;-74
2022/01/16 09:52:38;;;;;;;;;;;0.30;99.90;;;;;;5092313;22;20544;-76
2022/01/16 09:55:06;;;;;;;;;;;0.30;99.90;;;;;;5071217;28;19952;-76
2022/01/16 09:57:34;;;;;;;;;;;0.30;99.90;;;;;;5073409;28;19968;-76
2022/01/16 10:00:01;;;;;;;;;;;0.30;99.90;;;;;;5071647;28;20043;-76
2022/01/16 10:02:28;;;;;;;;;;;0.30;99.90;;;;;;5069514;28;19928;-76
2022/01/16 10:04:55;;;;;;;;;;;0.30;99.90;;;;;;5068022;28;20068;-76
2022/01/16 10:07:22;;;;;;;;;;;0.30;99.90;;;;;;5070673;28;19931;-76
2022/01/16 10:10:05;;;;;;;;;;;0.30;99.90;;;;;;5067820;28;20294;-76
2022/01/16 10:12:33;;;;;;;;;;;0.30;99.90;;;;;;5072319;28;20004;-76
2022/01/16 10:15:15;;;;;;;;;;;0.30;99.90;;;;;;5068969;28;20021;-76
2022/01/16 10:17:44;;;;;;;;;;;0.30;99.90;;;;;;5063475;28;19940;-76
2022/01/16 10:20:11;;;;;;;;;;;0.30;99.90;;;;;;5070288;28;19973;-76
2022/01/16 10:22:39;;;;;;;;;;;0.30;99.90;;;;;;5070469;28;19925;-75
2022/01/16 10:25:06;;;;;;;;;;;0.30;99.90;;;;;;5071469;28;19924;-76
2022/01/16 10:27:35;;;;;;;;;;;0.40;99.90;;;;;;5072736;28;19968;-75
2022/01/16 10:30:07;;;;;;;;;;;0.30;99.90;;;;;;5067792;28;19933;-76
2022/01/16 10:32:37;;;;;;;;;;;0.30;99.90;;;;;;5070400;28;19932;-76
2022/01/16 10:35:08;;;;;;;;;;;0.40;99.90;;;;;;5069680;28;19924;-76
2022/01/16 10:37:35;;;;;;;;;;;0.30;99.90;;;;;;5069451;28;19932;-76
2022/01/16 10:40:04;;;;;;;;;;;0.30;99.90;;;;;;5068523;28;19924;-75
2022/01/16 10:42:31;;;;;;;;;;;0.40;99.90;;;;;;5070398;28;20007;-76
2022/01/16 10:45:00;;;;;;;;;;;0.40;99.90;;;;;;5073893;28;19924;-75
2022/01/16 10:47:30;;;;;;;;;;;0.40;99.90;;;;;;5069102;28;21316;-76
2022/01/16 10:50:01;;;;;;;;;;;0.40;99.90;;;;;;5068944;28;19951;-76
2022/01/16 10:52:29;;;;;;;;;;;0.40;99.90;;;;;;5066974;28;20382;-76
2022/01/16 10:54:55;;;;;;;;;;;0.40;99.90;;;;;;5064193;28;19924;-76
2022/01/16 10:57:23;;;;;;;;;;;0.40;99.90;;;;;;5069114;28;20330;-76
2022/01/16 10:59:51;;;;;;;;;;;0.40;99.90;;;;;;5068167;28;19924;-76
2022/01/16 11:02:18;;;;;;;;;;;0.40;99.90;;;;;;5068814;28;19935;-75
2022/01/16 11:04:46;;;;;;;;;;;0.40;99.90;;;;;;5067475;28;19924;-76
2022/01/16 11:07:13;;;;;;;;;;;0.40;99.90;;;;;;5068671;28;20410;-76
2022/01/16 11:09:40;;;;;;;;;;;0.40;99.90;;;;;;5063974;28;20418;-76
2022/01/16 11:12:07;;;;;;;;;;;0.40;99.90;;;;;;5066621;28;19925;-76
2022/01/16 11:14:34;;;;;;;;;;;0.50;99.90;;;;;;5069759;28;19981;-75
2022/01/16 11:17:01;;;;;;;;;;;0.50;99.90;;;;;;5063500;28;19925;-76
2022/01/16 11:19:34;;;;;;;;;;;0.50;99.90;;;;;;5067102;28;20386;-76
2022/01/16 11:22:09;;;;;;;;;;;0.60;99.90;;;;;;5064524;28;20379;-75
2022/01/16 11:24:47;;;;;;;;;;;0.60;99.90;;;;;;5067203;28;20448;-76
2022/01/16 11:27:15;;;;;;;;;;;0.60;99.90;;;;;;5088300;28;20334;-76
2022/01/16 11:29:43;;;;;;;;;;;0.70;99.90;;;;;;5069622;28;19931;-76
2022/01/16 11:32:11;;;;;;;;;;;0.70;99.90;;;;;;5068722;28;19955;-75
2022/01/16 11:34:38;;;;;;;;;;;0.70;99.90;;;;;;5073231;28;19928;-76
2022/01/16 11:37:06;;;;;;;;;;;0.80;99.90;;;;;;5088089;28;19932;-76
2022/01/16 11:39:37;;;;;;;;;;;0.80;99.90;;;;;;5066135;28;20400;-76
2022/01/16 11:42:11;;;;;;;;;;;0.80;99.90;;;;;;5075460;28;19931;-75
2022/01/16 11:44:38;;;;;;;;;;;0.90;99.90;;;;;;5068417;28;19936;-75
2022/01/16 11:47:06;;;;;;;;;;;0.90;99.90;;;;;;5065669;28;19925;-76
2022/01/16 11:49:34;;;;;;;;;;;0.90;99.90;;;;;;5069185;28;19925;-76
2022/01/16 11:52:07;;;;;;;;;;;1.00;99.90;;;;;;5069848;28;19925;-75
2022/01/16 11:54:36;;;;;;;;;;;1.00;99.90;;;;;;5065179;28;20051;-76
2022/01/16 11:57:07;;;;;;;;;;;1.00;99.90;;;;;;5065644;28;20092;-76
2022/01/16 11:59:39;;;;;;;;;;;1.00;99.90;;;;;;5064547;28;19924;-75
2022/01/16 12:02:17;;;;;;;;;;;1.10;99.90;;;;;;5067270;28;20370;-76
2022/01/16 12:05:05;;;;;;;;;;;1.10;99.90;;;;;;5062508;28;19936;-76
2022/01/16 12:08:00;;;;;;;;;;;1.20;99.90;;;;;;5068446;28;20026;-76
2022/01/16 12:10:57;;;;;;;;;;;1.20;99.90;;;;;;5066370;28;19958;-75
2022/01/16 12:13:44;;;;;;;;;;;1.20;99.90;;;;;;5063789;28;20298;-76
2022/01/16 12:19:15;;;;;;;;;;;1.30;99.90;;;;;;5075188;22;19924;-76
2022/01/16 12:21:52;;;;;;;;;;;1.40;99.90;;;;;;5067152;28;19931;-76
2022/01/16 12:24:32;;;;;;;;;;;1.40;99.90;;;;;;5062055;28;19975;-76
2022/01/16 12:27:14;;;;;;;;;;;1.50;99.90;;;;;;5048276;28;19925;-77
2022/01/16 12:29:56;;;;;;;;;;;1.50;99.90;;;;;;5047052;28;19924;-76
2022/01/16 12:32:38;;;;;;;;;;;1.60;99.90;;;;;;5050179;28;19947;-76
2022/01/16 12:35:08;;;;;;;;;;;1.60;99.90;;;;;;5049361;28;20312;-76
2022/01/16 12:37:41;;;;;;;;;;;1.70;99.90;;;;;;5053603;28;19932;-76
2022/01/16 12:40:09;;;;;;;;;;;1.70;99.90;;;;;;5049033;28;20302;-76
2022/01/16 12:42:36;;;;;;;;;;;1.80;99.90;;;;;;5048895;28;19924;-76
2022/01/16 12:45:03;;;;;;;;;;;1.80;99.90;;;;;;5051510;28;19925;-77
2022/01/16 12:47:30;;;;;;;;;;;1.80;99.90;;;;;;5050491;28;20046;-76
2022/01/16 12:50:11;;;;;;;;;;;1.80;99.90;;;;;;5050693;28;19941;-76
2022/01/16 12:52:45;;;;;;;;;;;1.80;99.90;;;;;;5049644;28;20044;-76
2022/01/16 12:55:15;;;;;;;;;;;1.90;99.90;;;;;;5048629;28;20386;-76
2022/01/16 12:57:42;;;;;;;;;;;2.00;99.90;;;;;;5044904;28;20036;-76
2022/01/16 13:00:10;;;;;;;;;;;2.10;99.90;;;;;;5046295;28;20360;-76
2022/01/16 13:02:37;;;;;;;;;;;2.10;99.90;;;;;;5047780;28;20549;-76
2022/01/16 13:05:06;;;;;;;;;;;2.10;99.90;;;;;;5050393;28;20314;-76
2022/01/16 13:07:33;;;;;;;;;;;2.20;99.90;;;;;;5058132;28;20402;-76
2022/01/16 13:10:00;;;;;;;;;;;2.20;99.90;;;;;;5051767;28;19932;-77
2022/01/16 13:12:29;;;;;;;;;;;2.30;99.90;;;;;;5051287;28;20024;-77
2022/01/16 13:14:59;;;;;;;;;;;2.30;99.90;;;;;;5055578;28;19932;-76
2022/01/16 13:17:26;;;;;;;;;;;2.40;99.90;;;;;;5051720;28;19925;-77
2022/01/16 13:19:56;;;;;;;;;;;2.40;99.90;;;;;;5053687;28;20340;-77
2022/01/16 13:22:25;;;;;;;;;;;2.50;99.90;;;;;;5053809;28;19967;-77
2022/01/16 13:24:53;;;;;;;;;;;2.50;99.90;;;;;;5063596;28;19928;-76
2022/01/16 13:27:21;;;;;;;;;;;2.50;99.90;;;;;;5067162;28;20342;-77
2022/01/16 13:29:49;;;;;;;;;;;2.50;99.90;;;;;;5050516;28;19929;-77
2022/01/16 13:32:17;;;;;;;;;;;2.60;99.90;;;;;;5053050;28;20407;-77
2022/01/16 13:34:45;;;;;;;;;;;2.60;99.90;;;;;;5055375;28;19925;-77
2022/01/16 13:37:14;;;;;;;;;;;2.60;99.90;;;;;;5054179;28;19925;-77
2022/01/16 13:39:44;;;;;;;;;;;2.60;99.90;;;;;;5084633;28;19925;-77
2022/01/16 13:45:26;;;;;;;;;;;2.60;99.90;;;;;;5036099;28;20029;-77
2022/01/16 13:47:54;;;;;;;;;;;2.60;99.90;;;;;;5054574;28;19925;-77
2022/01/16 13:50:22;;;;;;;;;;;2.60;99.90;;;;;;5056356;28;19925;-77
2022/01/16 13:52:53;;;;;;;;;;;2.60;99.90;;;;;;5047230;28;19932;-77
2022/01/16 13:55:22;;;;;;;;;;;2.60;99.90;;;;;;5049116;28;19971;-77
2022/01/16 13:57:49;;;;;;;;;;;2.60;99.90;;;;;;5054767;28;20386;-77
2022/01/16 14:00:17;;;;;;;;;;;2.60;99.90;;;;;;5054528;28;19933;-77
2022/01/16 14:02:44;;;;;;;;;;;2.60;99.90;;;;;;5054928;28;19931;-77
2022/01/16 14:05:21;;;;;;;;;;;2.60;99.90;;;;;;5053755;28;19925;-77
2022/01/16 14:07:48;;;;;;;;;;;2.60;99.90;;;;;;5052637;28;19924;-76
2022/01/16 14:10:30;;;;;;;;;;;2.60;99.90;;;;;;5053229;28;19978;-77
2022/01/16 14:12:58;;;;;;;;;;;2.60;99.90;;;;;;5047187;28;20387;-77
2022/01/16 14:15:25;;;;;;;;;;;2.60;99.90;;;;;;5053998;28;20302;-77
2022/01/16 14:17:56;;;;;;;;;;;2.60;99.90;;;;;;5056314;28;19925;-77
2022/01/16 14:20:36;;;;;;;;;;;2.60;99.90;;;;;;5054345;28;20343;-77
2022/01/16 14:23:10;;;;;;;;;;;2.60;99.90;;;;;;5061280;28;20387;-77
2022/01/16 14:25:37;;;;;;;;;;;2.60;99.90;;;;;;5047237;28;19994;-77
2022/01/16 14:28:05;;;;;;;;;;;2.60;99.90;;;;;;5047189;28;19925;-77
2022/01/16 14:30:33;;;;;;;;;;;2.50;99.90;;;;;;5048208;28;19960;-77
2022/01/16 14:33:00;;;;;;;;;;;2.50;99.90;;;;;;5053368;28;19995;-77
2022/01/16 14:35:27;;;;;;;;;;;2.50;99.90;;;;;;5051270;28;20395;-77
2022/01/16 14:37:54;;;;;;;;;;;2.50;99.90;;;;;;5047807;28;19929;-77
2022/01/16 14:40:21;;;;;;;;;;;2.50;99.90;;;;;;5051539;28;20346;-77
2022/01/16 14:42:57;;;;;;;;;;;2.50;99.90;;;;;;5054891;28;19978;-77
2022/01/16 14:45:26;;;;;;;;;;;2.50;99.90;;;;;;5047712;28;19932;-77
2022/01/16 14:47:53;;;;;;;;;;;2.50;99.90;;;;;;5059115;28;19924;-77
2022/01/16 14:50:21;;;;;;;;;;;2.40;99.90;;;;;;5053350;28;19939;-77
2022/01/16 14:52:48;;;;;;;;;;;2.50;99.90;;;;;;5050897;28;19925;-77
2022/01/16 14:55:16;;;;;;;;;;;2.40;99.90;;;;;;5085699;28;19963;-77
2022/01/16 14:57:44;;;;;;;;;;;2.40;99.90;;;;;;5050965;28;19960;-77
2022/01/16 15:00:12;;;;;;;;;;;2.40;99.90;;;;;;5082527;28;19925;-77
2022/01/16 15:02:41;;;;;;;;;;;2.40;99.90;;;;;;5046807;28;19933;-77
2022/01/16 15:05:10;;;;;;;;;;;2.40;99.90;;;;;;5027850;28;20662;-77
2022/01/16 15:07:39;;;;;;;;;;;2.40;99.90;;;;;;5049925;28;20351;-77
2022/01/16 15:10:07;;;;;;;;;;;2.40;99.90;;;;;;5039897;28;19944;-77
2022/01/16 15:12:34;;;;;;;;;;;2.40;99.90;;;;;;5036634;28;19936;-77
2022/01/16 15:15:01;;;;;;;;;;;2.40;99.90;;;;;;5051541;28;20024;-77
2022/01/16 15:17:30;;;;;;;;;;;2.40;99.90;;;;;;5048907;28;19933;-77
2022/01/16 15:20:04;;;;;;;;;;;2.30;99.90;;;;;;5047148;28;20065;-77
2022/01/16 15:22:31;;;;;;;;;;;2.30;99.90;;;;;;5067132;28;20430;-77
2022/01/16 15:24:58;;;;;;;;;;;2.40;99.90;;;;;;5048996;28;19932;-77